Imperia, Italia

11:16 AM CET del 01 novembre 2014 (GMT +0100)
Imperia Meteo | Change Station
CLOSE
Current Station
Stazione meteo personale
Location: Imperia, IM
Altitudine: 177 ft
Stazioni meteo nelle vicinanze

Alt. 177 ft 43.89 °N, 8.04 °E | Updated 4 seconds ago

Clear
Sereno
66.9 °F
Sembra 66.9 °F
N
5.4
Vento Variabile Vento da SO
Gusts 5.4 mph

Oggi
Massima -- | Minima -- °F
--% Possibilità di precip.
Ieri
Massima -- | Minima -- °F
Precip. -- in
7:03 AM 5:18 PM
Gobba a ponente, 65% visible
Pressione 30.24 in
Visibilità -9999.0 miglia
Nuvole
Punto di rugiada 38 °F
Umidità 34%
Piovosità 0.00 in
Spessore del manto nevoso Non disponibile.
Raggi UV Non disponibile.
Polline Non disponibile.
Qualità dell'aria Non disponibile.
Flu Activity Non disponibile.
METAR LFMN 011000Z 31007KT CAVOK 19/07 Q1024 NOSIG

More Conditions Fewer Conditions

Pressione 30.24 in
Visibilità -9999.0 miglia
Nuvole
Punto di rugiada 38 °F
Umidità 34%
Piovosità 0.00 in
Spessore del manto nevoso Non disponibile.
Raggi UV Non disponibile.
Polline Non disponibile.
Qualità dell'aria Non disponibile.
Flu Activity Non disponibile.
METAR LFMN 011000Z 31007KT CAVOK 19/07 Q1024 NOSIG

More Conditions Fewer Conditions

10-Day Weather Forecast

Almanac

Astronomia

Nov. 01, 2014 Alba Tramonto
Ora attuale
Crepuscolo civile
Crepuscolo nautico
Crepuscolo astronomico
Luna
Estensione della luce visibile
Lunghezza del giorno
Tomorrow will be .
, % of the Moon is Illuminated

Gli estremi di oggi

Massime Regione Minime Regione

Community

WunderPhotos

Upload Photos

1,766,874 foto caricate!

WunderBlogs® & News

Nearby

Qualità dell'aria

  Qualità dell'aria Indice AQ Inquinante
Not available.

Profondità neve

Stazione Profondità Altitudine

Attività sismica

Città  Distanza Mag. Data & Ora
Minimo Magnitudo Mostrato è 2.5.

Temperature delle acque costiere

Località Temperatura

Stazioni meteo nelle vicinanze